LEMG

Málaga

Airport
ICAO code
LEMG
Summary
ICAO Region
EUR
ICAO Territory
Location

Málaga,

Coordinates
36° 40' 30" N , 4° 29' 57" W
KCC
Metar
Observation
LEMG 281200Z 29015KT 260V320 CAVOK 18/03 Q1022 NOSIG
Station
Malaga / Aeropuerto
Date/Time
2022-11-28 12:00:00
Wind direction
290°
Wind speed
15 kts
Lowest cloud amount
clouds and visibility OK
Temperature
18°C
Dew point
3°C
Humidity
36%
QNH
1022 hPa
Weather condition
n/a

Description

Málaga Airport, also known as Pablo Ruiz Picasso Airport, is an important airport for Spanish tourism as it is the main international airport for the Costa Del Sol. It is 8 km southwest of Málaga and 5 km north of Torremolinos.

Climatology

Dry-summer subtropical ”Mediterranean" climate (Köppen climate classification Csa) - characterized by hot, dry summers and mild winters. During the summer, subtropical high pressure cells dominate, making rainfall unlikely except for the occasional thunderstorm. In the winter, periodic storms bring rain.

Runways

Designator Length Width Surface Rops
12/30 2750 45 ASPHALT Yes/Yes
13/31 3200 45 ASP Yes/Yes

Airport map

Aerial View

SKYbrary Partners:

Safety knowledge contributed by: